sensor_id;sensor_type;location;lat;lon;timestamp;pressure;altitude;pressure_sealevel;temperature;humidity
61757;BME280;57225;61.460;24.060;2023-02-10T00:02:29;98483.44;;;1.10;100.00
61757;BME280;57225;61.460;24.060;2023-02-10T00:05:14;98489.41;;;1.23;100.00
61757;BME280;57225;61.460;24.060;2023-02-10T00:07:58;98469.34;;;1.15;100.00
61757;BME280;57225;61.460;24.060;2023-02-10T00:10:43;98457.16;;;1.05;100.00
61757;BME280;57225;61.460;24.060;2023-02-10T00:13:27;98452.84;;;1.08;100.00
61757;BME280;57225;61.460;24.060;2023-02-10T00:16:14;98451.66;;;1.05;100.00
61757;BME280;57225;61.460;24.060;2023-02-10T00:18:58;98443.88;;;1.14;100.00
61757;BME280;57225;61.460;24.060;2023-02-10T00:21:43;98423.41;;;1.01;100.00
61757;BME280;57225;61.460;24.060;2023-02-10T00:24:28;98424.72;;;1.18;100.00
61757;BME280;57225;61.460;24.060;2023-02-10T00:27:12;98420.38;;;1.13;100.00
61757;BME280;57225;61.460;24.060;2023-02-10T00:29:57;98407.06;;;1.15;100.00
61757;BME280;57225;61.460;24.060;2023-02-10T00:32:41;98402.34;;;1.12;100.00
61757;BME280;57225;61.460;24.060;2023-02-10T00:35:25;98381.13;;;1.06;100.00
61757;BME280;57225;61.460;24.060;2023-02-10T00:38:10;98356.06;;;1.07;100.00
61757;BME280;57225;61.460;24.060;2023-02-10T00:40:54;98360.03;;;1.13;100.00
61757;BME280;57225;61.460;24.060;2023-02-10T00:43:38;98343.94;;;1.15;100.00
61757;BME280;57225;61.460;24.060;2023-02-10T00:46:27;98340.91;;;1.31;100.00
61757;BME280;57225;61.460;24.060;2023-02-10T00:49:11;98324.81;;;1.26;100.00
61757;BME280;57225;61.460;24.060;2023-02-10T00:51:56;98314.97;;;1.18;100.00
61757;BME280;57225;61.460;24.060;2023-02-10T00:54:41;98308.34;;;1.23;100.00
61757;BME280;57225;61.460;24.060;2023-02-10T00:57:27;98298.91;;;1.16;100.00
61757;BME280;57225;61.460;24.060;2023-02-10T01:00:11;98267.91;;;1.05;100.00
61757;BME280;57225;61.460;24.060;2023-02-10T01:02:56;98268.31;;;1.07;100.00
61757;BME280;57225;61.460;24.060;2023-02-10T01:05:40;98268.28;;;1.00;100.00
61757;BME280;57225;61.460;24.060;2023-02-10T01:08:25;98252.53;;;0.90;100.00
61757;BME280;57225;61.460;24.060;2023-02-10T01:11:10;98251.38;;;0.91;100.00
61757;BME280;57225;61.460;24.060;2023-02-10T01:13:56;98238.81;;;0.90;100.00
61757;BME280;57225;61.460;24.060;2023-02-10T01:16:40;98218.84;;;0.86;100.00
61757;BME280;57225;61.460;24.060;2023-02-10T01:19:25;98218.88;;;0.93;100.00
61757;BME280;57225;61.460;24.060;2023-02-10T01:22:09;98201.59;;;0.82;100.00
61757;BME280;57225;61.460;24.060;2023-02-10T01:24:54;98199.59;;;0.75;100.00
61757;BME280;57225;61.460;24.060;2023-02-10T01:27:38;98191.72;;;0.67;100.00
61757;BME280;57225;61.460;24.060;2023-02-10T01:30:23;98165.06;;;0.64;100.00
61757;BME280;57225;61.460;24.060;2023-02-10T01:33:07;98173.34;;;0.71;100.00
61757;BME280;57225;61.460;24.060;2023-02-10T01:35:51;98161.56;;;0.67;100.00
61757;BME280;57225;61.460;24.060;2023-02-10T01:38:36;98145.09;;;0.60;100.00
61757;BME280;57225;61.460;24.060;2023-02-10T01:41:22;98138.78;;;0.49;100.00
61757;BME280;57225;61.460;24.060;2023-02-10T01:47:11;98116.88;;;0.49;100.00
61757;BME280;57225;61.460;24.060;2023-02-10T01:49:56;98101.16;;;0.38;100.00
61757;BME280;57225;61.460;24.060;2023-02-10T01:52:41;98090.63;;;0.44;100.00
61757;BME280;57225;61.460;24.060;2023-02-10T01:55:31;98072.66;;;0.50;100.00
61757;BME280;57225;61.460;24.060;2023-02-10T01:58:21;98064.81;;;0.49;100.00
61757;BME280;57225;61.460;24.060;2023-02-10T02:01:07;98049.88;;;0.35;100.00
61757;BME280;57225;61.460;24.060;2023-02-10T02:03:52;98033.41;;;0.28;100.00
61757;BME280;57225;61.460;24.060;2023-02-10T02:06:38;97996.16;;;0.03;100.00
61757;BME280;57225;61.460;24.060;2023-02-10T02:09:23;98025.25;;;0.43;100.00
61757;BME280;57225;61.460;24.060;2023-02-10T02:18:47;97994.72;;;0.37;100.00
61757;BME280;57225;61.460;24.060;2023-02-10T02:34:40;97963.38;;;0.27;100.00
61757;BME280;57225;61.460;24.060;2023-02-10T02:37:29;97960.59;;;0.20;100.00
61757;BME280;57225;61.460;24.060;2023-02-10T02:40:16;97947.72;;;0.17;100.00
61757;BME280;57225;61.460;24.060;2023-02-10T02:43:00;97942.25;;;0.28;100.00
61757;BME280;57225;61.460;24.060;2023-02-10T02:45:58;97918.38;;;0.25;100.00
61757;BME280;57225;61.460;24.060;2023-02-10T02:54:42;97910.94;;;0.39;100.00
61757;BME280;57225;61.460;24.060;2023-02-10T02:57:50;97907.81;;;0.30;100.00
61757;BME280;57225;61.460;24.060;2023-02-10T03:00:39;97903.91;;;0.31;100.00
61757;BME280;57225;61.460;24.060;2023-02-10T03:03:24;97888.25;;;0.32;100.00
61757;BME280;57225;61.460;24.060;2023-02-10T03:06:08;97895.69;;;0.38;100.00
61757;BME280;57225;61.460;24.060;2023-02-10T03:08:53;97886.69;;;0.42;100.00
61757;BME280;57225;61.460;24.060;2023-02-10T03:11:37;97877.31;;;0.35;100.00
61757;BME280;57225;61.460;24.060;2023-02-10T03:14:22;97874.94;;;0.34;100.00
61757;BME280;57225;61.460;24.060;2023-02-10T03:17:06;97862.44;;;0.19;100.00
61757;BME280;57225;61.460;24.060;2023-02-10T03:19:51;97856.56;;;0.24;100.00
61757;BME280;57225;61.460;24.060;2023-02-10T03:22:35;97860.09;;;0.24;100.00
61757;BME280;57225;61.460;24.060;2023-02-10T03:25:20;97858.91;;;0.22;100.00
61757;BME280;57225;61.460;24.060;2023-02-10T03:28:04;97848.34;;;0.27;100.00
61757;BME280;57225;61.460;24.060;2023-02-10T03:30:50;97839.72;;;0.39;100.00
61757;BME280;57225;61.460;24.060;2023-02-10T03:33:36;97837.78;;;0.36;100.00
61757;BME280;57225;61.460;24.060;2023-02-10T03:36:21;97828.78;;;0.39;100.00
61757;BME280;57225;61.460;24.060;2023-02-10T03:39:05;97830.34;;;0.37;100.00
61757;BME280;57225;61.460;24.060;2023-02-10T03:41:49;97828.41;;;0.37;100.00
61757;BME280;57225;61.460;24.060;2023-02-10T03:44:34;97803.72;;;0.16;100.00
61757;BME280;57225;61.460;24.060;2023-02-10T03:47:18;97813.91;;;0.26;100.00
61757;BME280;57225;61.460;24.060;2023-02-10T03:50:03;97814.31;;;0.18;100.00
61757;BME280;57225;61.460;24.060;2023-02-10T03:52:47;97815.47;;;0.17;100.00
61757;BME280;57225;61.460;24.060;2023-02-10T03:55:32;97805.28;;;0.10;100.00
61757;BME280;57225;61.460;24.060;2023-02-10T03:58:16;97791.19;;;0.08;100.00
61757;BME280;57225;61.460;24.060;2023-02-10T04:01:08;97799.03;;;0.17;100.00
61757;BME280;57225;61.460;24.060;2023-02-10T04:03:52;97794.34;;;0.10;100.00
61757;BME280;57225;61.460;24.060;2023-02-10T04:06:37;97790.81;;;0.17;100.00
61757;BME280;57225;61.460;24.060;2023-02-10T04:09:22;97786.13;;;0.21;100.00
61757;BME280;57225;61.460;24.060;2023-02-10T04:12:06;97786.53;;;0.16;100.00
61757;BME280;57225;61.460;24.060;2023-02-10T04:14:51;97787.69;;;0.29;100.00
61757;BME280;57225;61.460;24.060;2023-02-10T04:17:35;97791.22;;;0.22;100.00
61757;BME280;57225;61.460;24.060;2023-02-10T04:20:19;97781.44;;;0.18;100.00
61757;BME280;57225;61.460;24.060;2023-02-10T04:23:04;97774.78;;;0.08;100.00
61757;BME280;57225;61.460;24.060;2023-02-10T04:25:48;97776.75;;;0.11;100.00
61757;BME280;57225;61.460;24.060;2023-02-10T04:28:33;97762.28;;;0.11;100.00
61757;BME280;57225;61.460;24.060;2023-02-10T04:31:17;97768.53;;;0.11;100.00
61757;BME280;57225;61.460;24.060;2023-02-10T04:34:02;97772.44;;;0.10;100.00
61757;BME280;57225;61.460;24.060;2023-02-10T04:36:46;97782.22;;;0.11;100.00
61757;BME280;57225;61.460;24.060;2023-02-10T04:39:30;97773.22;;;0.07;100.00
61757;BME280;57225;61.460;24.060;2023-02-10T04:42:16;97776.34;;;0.06;100.00
61757;BME280;57225;61.460;24.060;2023-02-10T04:45:00;97779.47;;;0.11;100.00
61757;BME280;57225;61.460;24.060;2023-02-10T04:47:44;97774.41;;;0.06;100.00
61757;BME280;57225;61.460;24.060;2023-02-10T04:50:29;97773.22;;;0.11;100.00
61757;BME280;57225;61.460;24.060;2023-02-10T04:53:13;97772.44;;;0.03;100.00
61757;BME280;57225;61.460;24.060;2023-02-10T04:55:58;97765.41;;;-0.02;100.00
61757;BME280;57225;61.460;24.060;2023-02-10T04:58:42;97773.59;;;0.02;100.00
61757;BME280;57225;61.460;24.060;2023-02-10T05:01:27;97763.44;;;-0.08;100.00
61757;BME280;57225;61.460;24.060;2023-02-10T05:04:11;97779.47;;;-0.03;100.00
61757;BME280;57225;61.460;24.060;2023-02-10T05:06:56;97777.13;;;0.06;100.00
61757;BME280;57225;61.460;24.060;2023-02-10T05:09:43;97758.34;;;-0.03;100.00
61757;BME280;57225;61.460;24.060;2023-02-10T05:12:28;97770.88;;;0.09;100.00
61757;BME280;57225;61.460;24.060;2023-02-10T05:15:12;97764.59;;;0.09;100.00
61757;BME280;57225;61.460;24.060;2023-02-10T05:17:57;97772.44;;;0.03;100.00
61757;BME280;57225;61.460;24.060;2023-02-10T05:20:41;97777.91;;;0.07;100.00
61757;BME280;57225;61.460;24.060;2023-02-10T05:23:26;97785.34;;;0.13;100.00
61757;BME280;57225;61.460;24.060;2023-02-10T05:26:11;97793.16;;;0.15;100.00
61757;BME280;57225;61.460;24.060;2023-02-10T05:28:55;97799.41;;;0.01;100.00
61757;BME280;57225;61.460;24.060;2023-02-10T05:31:40;97798.25;;;0.02;100.00
61757;BME280;57225;61.460;24.060;2023-02-10T05:34:24;97804.50;;;0.10;100.00
61757;BME280;57225;61.460;24.060;2023-02-10T05:37:10;97834.59;;;-0.15;100.00
61757;BME280;57225;61.460;24.060;2023-02-10T05:39:55;97853.09;;;-0.81;100.00
61757;BME280;57225;61.460;24.060;2023-02-10T05:42:39;97836.22;;;-1.01;100.00
61757;BME280;57225;61.460;24.060;2023-02-10T05:45:24;97895.50;;;-1.12;100.00
61757;BME280;57225;61.460;24.060;2023-02-10T05:48:09;97888.44;;;-1.16;100.00
61757;BME280;57225;61.460;24.060;2023-02-10T05:50:53;97893.06;;;-1.28;100.00
61757;BME280;57225;61.460;24.060;2023-02-10T05:53:37;97913.38;;;-1.22;100.00
61757;BME280;57225;61.460;24.060;2023-02-10T05:56:22;97918.06;;;-1.22;100.00
61757;BME280;57225;61.460;24.060;2023-02-10T05:59:07;97921.97;;;-1.23;100.00
61757;BME280;57225;61.460;24.060;2023-02-10T06:01:52;97935.59;;;-1.27;100.00
61757;BME280;57225;61.460;24.060;2023-02-10T06:04:37;97944.53;;;-1.30;100.00
61757;BME280;57225;61.460;24.060;2023-02-10T06:07:21;97952.31;;;-1.32;100.00
61757;BME280;57225;61.460;24.060;2023-02-10T06:10:06;97943.31;;;-1.36;100.00
61757;BME280;57225;61.460;24.060;2023-02-10T06:12:51;97956.63;;;-1.34;100.00
61757;BME280;57225;61.460;24.060;2023-02-10T06:15:35;97971.00;;;-1.37;100.00
61757;BME280;57225;61.460;24.060;2023-02-10T06:18:19;97973.78;;;-1.34;100.00
61757;BME280;57225;61.460;24.060;2023-02-10T06:21:04;97980.47;;;-1.28;100.00
61757;BME280;57225;61.460;24.060;2023-02-10T06:23:49;98001.44;;;-1.39;100.00
61757;BME280;57225;61.460;24.060;2023-02-10T06:26:34;97993.66;;;-1.37;100.00
61757;BME280;57225;61.460;24.060;2023-02-10T06:29:18;98010.75;;;-1.43;100.00
61757;BME280;57225;61.460;24.060;2023-02-10T06:32:03;98029.09;;;-1.44;100.00
61757;BME280;57225;61.460;24.060;2023-02-10T06:34:47;98030.25;;;-1.45;100.00
61757;BME280;57225;61.460;24.060;2023-02-10T06:56:00;98081.75;;;-1.47;100.00
61757;BME280;57225;61.460;24.060;2023-02-10T06:58:44;98089.53;;;-1.45;100.00
61757;BME280;57225;61.460;24.060;2023-02-10T07:01:29;98080.91;;;-1.51;100.00
61757;BME280;57225;61.460;24.060;2023-02-10T07:04:13;98100.34;;;-1.56;100.00
61757;BME280;57225;61.460;24.060;2023-02-10T07:06:58;98102.44;;;-1.46;100.00
61757;BME280;57225;61.460;24.060;2023-02-10T07:09:42;98100.34;;;-1.56;100.00
61757;BME280;57225;61.460;24.060;2023-02-10T07:12:27;98115.22;;;-1.53;100.00
61757;BME280;57225;61.460;24.060;2023-02-10T07:15:11;98107.63;;;-1.67;100.00
61757;BME280;57225;61.460;24.060;2023-02-10T07:17:56;98120.25;;;-1.55;100.00
61757;BME280;57225;61.460;24.060;2023-02-10T07:20:40;98125.00;;;-1.52;100.00
61757;BME280;57225;61.460;24.060;2023-02-10T07:23:24;98115.84;;;-1.67;100.00
61757;BME280;57225;61.460;24.060;2023-02-10T07:26:09;98135.03;;;-1.60;100.00
61757;BME280;57225;61.460;24.060;2023-02-10T07:28:55;98151.19;;;-1.48;100.00
61757;BME280;57225;61.460;24.060;2023-02-10T07:31:40;98158.13;;;-1.54;100.00
61757;BME280;57225;61.460;24.060;2023-02-10T07:34:25;98164.78;;;-1.51;100.00
61757;BME280;57225;61.460;24.060;2023-02-10T07:37:10;98166.03;;;-1.45;100.00
61757;BME280;57225;61.460;24.060;2023-02-10T07:39:55;98172.94;;;-1.55;100.00
61757;BME280;57225;61.460;24.060;2023-02-10T07:42:39;98193.63;;;-1.54;100.00
61757;BME280;57225;61.460;24.060;2023-02-10T07:45:23;98204.88;;;-1.59;100.00
61757;BME280;57225;61.460;24.060;2023-02-10T07:48:10;98212.75;;;-1.54;100.00
61757;BME280;57225;61.460;24.060;2023-02-10T07:50:54;98206.53;;;-1.51;100.00
61757;BME280;57225;61.460;24.060;2023-02-10T07:53:39;98226.09;;;-1.49;100.00
61757;BME280;57225;61.460;24.060;2023-02-10T07:56:24;98228.22;;;-1.65;100.00
61757;BME280;57225;61.460;24.060;2023-02-10T07:59:08;98236.41;;;-1.65;100.00
61757;BME280;57225;61.460;24.060;2023-02-10T08:01:53;98243.63;;;-1.50;100.00
61757;BME280;57225;61.460;24.060;2023-02-10T08:04:37;98245.53;;;-1.54;100.00
61757;BME280;57225;61.460;24.060;2023-02-10T08:07:23;98253.88;;;-1.70;100.00
61757;BME280;57225;61.460;24.060;2023-02-10T08:10:08;98264.97;;;-1.59;100.00
61757;BME280;57225;61.460;24.060;2023-02-10T08:12:53;98264.19;;;-1.59;100.00
61757;BME280;57225;61.460;24.060;2023-02-10T08:15:38;98262.03;;;-1.47;100.00
61757;BME280;57225;61.460;24.060;2023-02-10T08:18:22;98292.91;;;-1.43;100.00
61757;BME280;57225;61.460;24.060;2023-02-10T08:21:07;98295.16;;;-1.75;100.00
61757;BME280;57225;61.460;24.060;2023-02-10T08:23:52;98306.91;;;-1.44;100.00
61757;BME280;57225;61.460;24.060;2023-02-10T08:26:39;98329.84;;;-1.52;100.00
61757;BME280;57225;61.460;24.060;2023-02-10T08:29:24;98327.34;;;-1.61;100.00
61757;BME280;57225;61.460;24.060;2023-02-10T08:32:08;98343.22;;;-1.44;100.00
61757;BME280;57225;61.460;24.060;2023-02-10T08:34:53;98360.16;;;-1.35;100.00
61757;BME280;57225;61.460;24.060;2023-02-10T08:37:37;98373.69;;;-1.42;100.00
61757;BME280;57225;61.460;24.060;2023-02-10T08:40:22;98376.00;;;-1.44;100.00
61757;BME280;57225;61.460;24.060;2023-02-10T08:43:06;98375.31;;;-1.37;100.00
61757;BME280;57225;61.460;24.060;2023-02-10T08:45:51;98398.16;;;-1.49;100.00
61757;BME280;57225;61.460;24.060;2023-02-10T08:48:36;98396.06;;;-1.33;100.00
61757;BME280;57225;61.460;24.060;2023-02-10T08:51:21;98414.91;;;-1.28;100.00
61757;BME280;57225;61.460;24.060;2023-02-10T08:54:05;98399.31;;;-1.50;100.00
61757;BME280;57225;61.460;24.060;2023-02-10T08:56:53;98416.59;;;-1.19;100.00
61757;BME280;57225;61.460;24.060;2023-02-10T08:59:38;98421.16;;;-1.50;100.00
61757;BME280;57225;61.460;24.060;2023-02-10T09:02:23;98424.47;;;-1.41;100.00
61757;BME280;57225;61.460;24.060;2023-02-10T09:05:07;98433.06;;;-1.39;100.00
61757;BME280;57225;61.460;24.060;2023-02-10T09:07:52;98443.38;;;-1.29;100.00
61757;BME280;57225;61.460;24.060;2023-02-10T09:10:39;98463.50;;;-1.40;100.00
61757;BME280;57225;61.460;24.060;2023-02-10T09:13:23;98459.91;;;-1.44;100.00
61757;BME280;57225;61.460;24.060;2023-02-10T09:16:07;98457.38;;;-1.34;100.00
61757;BME280;57225;61.460;24.060;2023-02-10T09:18:52;98472.66;;;-1.52;100.00
61757;BME280;57225;61.460;24.060;2023-02-10T09:21:37;98488.00;;;-1.44;100.00
61757;BME280;57225;61.460;24.060;2023-02-10T09:24:22;98487.53;;;-1.49;100.00
61757;BME280;57225;61.460;24.060;2023-02-10T09:27:07;98498.53;;;-1.46;100.00
61757;BME280;57225;61.460;24.060;2023-02-10T09:29:51;98476.66;;;-1.46;100.00
61757;BME280;57225;61.460;24.060;2023-02-10T09:32:36;98494.56;;;-1.26;100.00
61757;BME280;57225;61.460;24.060;2023-02-10T09:35:21;98489.72;;;-1.36;100.00
61757;BME280;57225;61.460;24.060;2023-02-10T09:38:05;98526.94;;;-1.28;100.00
61757;BME280;57225;61.460;24.060;2023-02-10T09:43:56;98541.75;;;-1.29;100.00
61757;BME280;57225;61.460;24.060;2023-02-10T09:47:19;98547.28;;;-1.25;100.00
61757;BME280;57225;61.460;24.060;2023-02-10T09:50:20;98546.25;;;-1.40;100.00
61757;BME280;57225;61.460;24.060;2023-02-10T09:53:17;98552.88;;;-1.18;100.00
61757;BME280;57225;61.460;24.060;2023-02-10T09:56:11;98576.13;;;-1.28;100.00
61757;BME280;57225;61.460;24.060;2023-02-10T09:58:59;98576.13;;;-1.28;100.00
61757;BME280;57225;61.460;24.060;2023-02-10T10:01:49;98578.25;;;-1.17;100.00
61757;BME280;57225;61.460;24.060;2023-02-10T10:04:35;98578.44;;;-1.30;100.00
61757;BME280;57225;61.460;24.060;2023-02-10T10:07:24;98592.94;;;-1.26;100.00
61757;BME280;57225;61.460;24.060;2023-02-10T10:13:03;98610.69;;;-1.16;100.00
61757;BME280;57225;61.460;24.060;2023-02-10T10:25:19;98623.28;;;-1.11;100.00
61757;BME280;57225;61.460;24.060;2023-02-10T10:31:30;98636.22;;;-1.08;100.00
61757;BME280;57225;61.460;24.060;2023-02-10T10:34:20;98634.88;;;-1.18;100.00
61757;BME280;57225;61.460;24.060;2023-02-10T10:37:14;98644.13;;;-1.03;100.00
61757;BME280;57225;61.460;24.060;2023-02-10T10:40:02;98679.47;;;-1.14;100.00
61757;BME280;57225;61.460;24.060;2023-02-10T10:42:53;98667.75;;;-1.14;100.00
61757;BME280;57225;61.460;24.060;2023-02-10T10:45:48;98670.84;;;-1.16;100.00
61757;BME280;57225;61.460;24.060;2023-02-10T10:48:35;98672.63;;;-1.04;100.00
61757;BME280;57225;61.460;24.060;2023-02-10T10:51:21;98683.56;;;-1.24;100.00
61757;BME280;57225;61.460;24.060;2023-02-10T10:54:06;98689.31;;;-1.29;100.00
61757;BME280;57225;61.460;24.060;2023-02-10T10:57:02;98709.25;;;-1.28;100.00
61757;BME280;57225;61.460;24.060;2023-02-10T10:59:53;98714.84;;;-1.21;100.00
61757;BME280;57225;61.460;24.060;2023-02-10T11:02:39;98702.97;;;-1.29;100.00
61757;BME280;57225;61.460;24.060;2023-02-10T11:05:28;98727.94;;;-1.30;100.00
61757;BME280;57225;61.460;24.060;2023-02-10T11:08:25;98729.56;;;-1.26;100.00
61757;BME280;57225;61.460;24.060;2023-02-10T11:11:15;98744.03;;;-1.25;100.00
61757;BME280;57225;61.460;24.060;2023-02-10T11:14:00;98766.06;;;-1.18;100.00
61757;BME280;57225;61.460;24.060;2023-02-10T11:17:05;98770.19;;;-1.08;100.00
61757;BME280;57225;61.460;24.060;2023-02-10T11:20:04;98776.78;;;-1.09;100.00
61757;BME280;57225;61.460;24.060;2023-02-10T11:23:16;98775.50;;;-0.96;100.00
61757;BME280;57225;61.460;24.060;2023-02-10T11:26:04;98801.69;;;-0.95;100.00
61757;BME280;57225;61.460;24.060;2023-02-10T11:28:51;98798.69;;;-0.90;100.00
61757;BME280;57225;61.460;24.060;2023-02-10T11:31:36;98803.03;;;-1.05;100.00
61757;BME280;57225;61.460;24.060;2023-02-10T11:34:30;98812.47;;;-1.02;100.00
61757;BME280;57225;61.460;24.060;2023-02-10T11:37:33;98815.78;;;-0.93;100.00
61757;BME280;57225;61.460;24.060;2023-02-10T11:40:23;98826.38;;;-0.92;100.00
61757;BME280;57225;61.460;24.060;2023-02-10T11:43:10;98840.09;;;-0.88;100.00
61757;BME280;57225;61.460;24.060;2023-02-10T11:46:01;98856.97;;;-0.67;100.00
61757;BME280;57225;61.460;24.060;2023-02-10T11:48:56;98844.13;;;-0.82;100.00
61757;BME280;57225;61.460;24.060;2023-02-10T11:51:53;98862.09;;;-1.00;100.00
61757;BME280;57225;61.460;24.060;2023-02-10T11:54:39;98873.00;;;-0.85;100.00
61757;BME280;57225;61.460;24.060;2023-02-10T11:57:42;98887.50;;;-0.65;100.00
61757;BME280;57225;61.460;24.060;2023-02-10T12:00:56;98889.13;;;-0.79;100.00
61757;BME280;57225;61.460;24.060;2023-02-10T12:04:00;98895.13;;;-0.74;100.00
61757;BME280;57225;61.460;24.060;2023-02-10T12:09:48;98919.53;;;-1.00;99.34
61757;BME280;57225;61.460;24.060;2023-02-10T12:12:57;98906.03;;;-0.93;100.00
61757;BME280;57225;61.460;24.060;2023-02-10T12:15:56;98907.88;;;-0.97;100.00
61757;BME280;57225;61.460;24.060;2023-02-10T12:22:03;98923.72;;;-0.87;100.00
61757;BME280;57225;61.460;24.060;2023-02-10T12:27:49;98947.75;;;-0.96;99.27
61757;BME280;57225;61.460;24.060;2023-02-10T12:31:03;98956.13;;;-0.89;100.00
61757;BME280;57225;61.460;24.060;2023-02-10T12:43:58;98994.03;;;-0.88;100.00
61757;BME280;57225;61.460;24.060;2023-02-10T12:47:02;99014.97;;;-0.95;100.00
61757;BME280;57225;61.460;24.060;2023-02-10T12:53:03;99034.38;;;-0.85;99.90
61757;BME280;57225;61.460;24.060;2023-02-10T12:56:17;99032.50;;;-1.12;96.16
61757;BME280;57225;61.460;24.060;2023-02-10T12:59:21;99046.38;;;-1.05;98.51
61757;BME280;57225;61.460;24.060;2023-02-10T13:02:14;99056.13;;;-1.19;96.15
61757;BME280;57225;61.460;24.060;2023-02-10T13:05:05;99068.84;;;-1.11;97.01
61757;BME280;57225;61.460;24.060;2023-02-10T13:07:58;99075.91;;;-0.95;100.00
61757;BME280;57225;61.460;24.060;2023-02-10T13:10:49;99090.44;;;-1.06;97.80
61757;BME280;57225;61.460;24.060;2023-02-10T13:13:36;99086.22;;;-1.04;100.00
61757;BME280;57225;61.460;24.060;2023-02-10T13:16:26;99090.97;;;-1.16;94.17
61757;BME280;57225;61.460;24.060;2023-02-10T13:25:18;99107.13;;;-1.11;97.98
61757;BME280;57225;61.460;24.060;2023-02-10T13:34:31;99107.44;;;-1.29;99.15
61757;BME280;57225;61.460;24.060;2023-02-10T13:40:20;99141.56;;;-1.23;96.85
61757;BME280;57225;61.460;24.060;2023-02-10T13:43:06;99143.66;;;-1.32;97.20
61757;BME280;57225;61.460;24.060;2023-02-10T13:45:52;99138.19;;;-1.32;97.60
61757;BME280;57225;61.460;24.060;2023-02-10T13:48:37;99156.13;;;-1.18;97.00
61757;BME280;57225;61.460;24.060;2023-02-10T13:51:35;99158.06;;;-1.19;100.00
61757;BME280;57225;61.460;24.060;2023-02-10T13:54:26;99156.84;;;-1.22;98.15
61757;BME280;57225;61.460;24.060;2023-02-10T13:57:32;99170.28;;;-1.29;100.00
61757;BME280;57225;61.460;24.060;2023-02-10T14:00:20;99180.94;;;-1.39;92.74
61757;BME280;57225;61.460;24.060;2023-02-10T14:06:04;99185.38;;;-1.47;97.71
61757;BME280;57225;61.460;24.060;2023-02-10T14:08:49;99201.78;;;-1.47;93.52
61757;BME280;57225;61.460;24.060;2023-02-10T14:11:39;99188.56;;;-1.45;98.28
61757;BME280;57225;61.460;24.060;2023-02-10T14:14:33;99206.69;;;-1.52;92.05
61757;BME280;57225;61.460;24.060;2023-02-10T14:17:24;99214.78;;;-1.56;93.09
61757;BME280;57225;61.460;24.060;2023-02-10T14:20:22;99213.66;;;-1.67;93.86
61757;BME280;57225;61.460;24.060;2023-02-10T14:23:07;99236.97;;;-1.70;95.38
61757;BME280;57225;61.460;24.060;2023-02-10T14:26:05;99245.97;;;-1.69;97.24
61757;BME280;57225;61.460;24.060;2023-02-10T14:28:56;99246.31;;;-1.71;95.80
61757;BME280;57225;61.460;24.060;2023-02-10T14:31:42;99253.84;;;-1.80;93.30
61757;BME280;57225;61.460;24.060;2023-02-10T14:34:34;99256.00;;;-1.85;95.74
61757;BME280;57225;61.460;24.060;2023-02-10T14:37:20;99261.00;;;-1.87;94.80
61757;BME280;57225;61.460;24.060;2023-02-10T14:40:06;99276.03;;;-1.93;98.34
61757;BME280;57225;61.460;24.060;2023-02-10T14:42:51;99285.47;;;-1.91;100.00
61757;BME280;57225;61.460;24.060;2023-02-10T14:45:36;99284.69;;;-1.91;100.00
61757;BME280;57225;61.460;24.060;2023-02-10T14:48:24;99289.56;;;-1.97;98.72
61757;BME280;57225;61.460;24.060;2023-02-10T14:51:21;99293.84;;;-2.08;100.00
61757;BME280;57225;61.460;24.060;2023-02-10T14:54:13;99293.19;;;-2.17;100.00
61757;BME280;57225;61.460;24.060;2023-02-10T14:57:02;99299.19;;;-2.24;100.00
61757;BME280;57225;61.460;24.060;2023-02-10T14:59:54;99302.59;;;-2.27;100.00
61757;BME280;57225;61.460;24.060;2023-02-10T15:02:39;99314.00;;;-2.13;100.00
61757;BME280;57225;61.460;24.060;2023-02-10T15:05:26;99321.69;;;-2.27;100.00
61757;BME280;57225;61.460;24.060;2023-02-10T15:08:17;99330.91;;;-2.19;100.00
61757;BME280;57225;61.460;24.060;2023-02-10T15:11:07;99340.25;;;-2.20;100.00
61757;BME280;57225;61.460;24.060;2023-02-10T15:13:53;99325.44;;;-2.31;100.00
61757;BME280;57225;61.460;24.060;2023-02-10T15:16:37;99313.03;;;-2.41;100.00
61757;BME280;57225;61.460;24.060;2023-02-10T15:19:22;99333.25;;;-2.42;100.00
61757;BME280;57225;61.460;24.060;2023-02-10T15:22:32;99340.75;;;-2.39;100.00
61757;BME280;57225;61.460;24.060;2023-02-10T15:28:18;99345.56;;;-2.57;100.00
61757;BME280;57225;61.460;24.060;2023-02-10T15:31:18;99361.41;;;-2.50;100.00
61757;BME280;57225;61.460;24.060;2023-02-10T15:34:20;99352.75;;;-2.52;100.00
61757;BME280;57225;61.460;24.060;2023-02-10T15:37:17;99348.03;;;-2.43;100.00
61757;BME280;57225;61.460;24.060;2023-02-10T15:40:15;99348.69;;;-2.46;100.00
61757;BME280;57225;61.460;24.060;2023-02-10T15:43:20;99361.28;;;-2.54;100.00
61757;BME280;57225;61.460;24.060;2023-02-10T15:46:25;99363.88;;;-2.57;100.00
61757;BME280;57225;61.460;24.060;2023-02-10T15:49:16;99362.22;;;-2.70;100.00
61757;BME280;57225;61.460;24.060;2023-02-10T15:52:02;99354.94;;;-2.78;100.00
61757;BME280;57225;61.460;24.060;2023-02-10T15:54:48;99369.75;;;-2.67;100.00
61757;BME280;57225;61.460;24.060;2023-02-10T15:57:36;99375.00;;;-2.62;100.00
61757;BME280;57225;61.460;24.060;2023-02-10T16:00:24;99364.09;;;-2.62;100.00
61757;BME280;57225;61.460;24.060;2023-02-10T16:03:09;99361.09;;;-2.69;100.00
61757;BME280;57225;61.460;24.060;2023-02-10T16:05:54;99373.81;;;-2.73;100.00
61757;BME280;57225;61.460;24.060;2023-02-10T16:08:45;99368.09;;;-2.80;100.00
61757;BME280;57225;61.460;24.060;2023-02-10T16:11:30;99390.16;;;-2.73;100.00
61757;BME280;57225;61.460;24.060;2023-02-10T16:14:14;99378.94;;;-2.72;100.00
61757;BME280;57225;61.460;24.060;2023-02-10T16:16:59;99389.28;;;-2.65;100.00
61757;BME280;57225;61.460;24.060;2023-02-10T16:19:43;99385.69;;;-2.78;100.00
61757;BME280;57225;61.460;24.060;2023-02-10T16:22:28;99382.84;;;-2.81;100.00